KBYI/BYI METAR and TAF weather

Enter ICAO airport designator
Station Type Date Time Source
KBYI METAR 2021/03/05 05:53 UTC NOAA

KBYI 050553Z AUTO 15003KT 10SM CLR 01/M04 A3029 RMK AO2 SLP258 T00111044 10144 20000 51014


Station Type Date Time Source
KBYI Decoded METAR 2021/03/05 05:53 UTC NOAA

BURLEY MUNICIPAL AIRPORT, ID, United States (KBYI) 42-33N 113-46W 1264M
Mar 05, 2021 - 12:53 AM EST / 2021.03.05 0553 UTC
Wind: from the SSE (150 degrees) at 3 MPH (3 KT):0
Visibility: 10 mile(s):0
Sky conditions: clear
Temperature: 34.0 F (1.1 C)
Dew Point: 24.1 F (-4.4 C)
Relative Humidity: 66%
Pressure (altimeter): 30.29 in. Hg (1025 hPa)
Pressure tendency: 0.04 inches (1.4 hPa) higher than three hours ago
ob: KBYI 050553Z AUTO 15003KT 10SM CLR 01/M04 A3029 RMK AO2 SLP258 T00111044 10144 20000 51014
cycle: 6

Station Type Date Time Source
KBYI TAF 2021/03/05 06:24 UTC NOAA

TAF KBYI 050521Z 0506/0606 18005KT P6SM SKC
FM050900 06007KT P6SM FEW250

Example: see airport list